sensor_id;sensor_type;location;lat;lon;timestamp;pressure;altitude;pressure_sealevel;temperature;humidity
63715;BME280;49858;48.956;9.076;2022-07-05T00:00:21;98998.81;;;22.78;47.48
63715;BME280;49858;48.956;9.076;2022-07-05T00:02:48;98993.63;;;23.33;45.17
63715;BME280;49858;48.956;9.076;2022-07-05T00:05:15;98997.56;;;22.59;47.10
63715;BME280;49858;48.956;9.076;2022-07-05T00:07:41;98992.00;;;22.36;48.13
63715;BME280;49858;48.956;9.076;2022-07-05T00:10:08;98984.00;;;22.98;46.02
63715;BME280;49858;48.956;9.076;2022-07-05T00:12:35;98989.38;;;23.08;45.98
63715;BME280;49858;48.956;9.076;2022-07-05T00:15:04;98985.59;;;21.07;51.22
63715;BME280;49858;48.956;9.076;2022-07-05T00:17:30;98989.19;;;21.08;52.34
63715;BME280;49858;48.956;9.076;2022-07-05T00:19:57;98994.09;;;21.00;51.90
63715;BME280;49858;48.956;9.076;2022-07-05T00:22:24;98991.66;;;20.72;53.14
63715;BME280;49858;48.956;9.076;2022-07-05T00:24:50;98992.34;;;21.40;51.71
63715;BME280;49858;48.956;9.076;2022-07-05T00:27:17;98988.97;;;22.03;50.23
63715;BME280;49858;48.956;9.076;2022-07-05T00:29:45;98991.88;;;21.96;49.71
63715;BME280;49858;48.956;9.076;2022-07-05T00:32:13;98986.53;;;20.97;52.22
63715;BME280;49858;48.956;9.076;2022-07-05T00:34:39;98987.16;;;20.02;55.25
63715;BME280;49858;48.956;9.076;2022-07-05T00:37:06;98995.88;;;20.49;54.58
63715;BME280;49858;48.956;9.076;2022-07-05T00:39:33;98991.75;;;19.78;56.78
63715;BME280;49858;48.956;9.076;2022-07-05T00:42:00;98991.66;;;19.89;57.53
63715;BME280;49858;48.956;9.076;2022-07-05T00:44:29;98993.41;;;20.58;54.87
63715;BME280;49858;48.956;9.076;2022-07-05T00:46:57;99000.69;;;20.49;54.71
63715;BME280;49858;48.956;9.076;2022-07-05T00:49:25;98997.25;;;20.72;54.18
63715;BME280;49858;48.956;9.076;2022-07-05T00:51:52;98998.19;;;21.23;52.37
63715;BME280;49858;48.956;9.076;2022-07-05T00:54:19;98999.84;;;21.16;52.67
63715;BME280;49858;48.956;9.076;2022-07-05T00:56:46;99005.88;;;21.15;52.78
63715;BME280;49858;48.956;9.076;2022-07-05T00:59:13;99003.31;;;22.05;50.71
63715;BME280;49858;48.956;9.076;2022-07-05T01:01:41;98998.00;;;22.14;49.73
63715;BME280;49858;48.956;9.076;2022-07-05T01:04:08;99010.09;;;22.75;47.85
63715;BME280;49858;48.956;9.076;2022-07-05T01:06:36;99021.63;;;22.57;48.56
63715;BME280;49858;48.956;9.076;2022-07-05T01:09:03;99020.81;;;22.36;49.32
63715;BME280;49858;48.956;9.076;2022-07-05T01:11:31;99017.50;;;22.22;48.69
63715;BME280;49858;48.956;9.076;2022-07-05T01:13:58;99016.38;;;21.38;51.66
63715;BME280;49858;48.956;9.076;2022-07-05T01:16:25;99010.94;;;21.24;51.81
63715;BME280;49858;48.956;9.076;2022-07-05T01:18:52;99015.34;;;20.94;52.98
63715;BME280;49858;48.956;9.076;2022-07-05T01:21:21;99012.38;;;20.74;53.88
63715;BME280;49858;48.956;9.076;2022-07-05T01:23:54;99013.16;;;20.75;53.92
63715;BME280;49858;48.956;9.076;2022-07-05T01:26:22;99008.72;;;21.69;51.98
63715;BME280;49858;48.956;9.076;2022-07-05T01:28:48;99015.47;;;20.04;55.39
63715;BME280;49858;48.956;9.076;2022-07-05T01:31:15;99009.78;;;20.15;56.27
63715;BME280;49858;48.956;9.076;2022-07-05T01:33:42;99018.88;;;20.64;55.06
63715;BME280;49858;48.956;9.076;2022-07-05T01:36:11;99013.47;;;20.05;56.00
63715;BME280;49858;48.956;9.076;2022-07-05T01:38:38;99011.22;;;20.30;55.79
63715;BME280;49858;48.956;9.076;2022-07-05T01:41:08;99012.56;;;20.15;56.03
63715;BME280;49858;48.956;9.076;2022-07-05T01:43:35;99005.84;;;21.18;53.58
63715;BME280;49858;48.956;9.076;2022-07-05T01:46:03;99011.44;;;21.73;51.03
63715;BME280;49858;48.956;9.076;2022-07-05T01:48:32;99011.34;;;20.61;53.82
63715;BME280;49858;48.956;9.076;2022-07-05T01:51:04;99017.63;;;20.68;54.11
63715;BME280;49858;48.956;9.076;2022-07-05T01:53:32;99013.00;;;20.89;54.35
63715;BME280;49858;48.956;9.076;2022-07-05T01:56:02;99012.00;;;21.37;51.28
63715;BME280;49858;48.956;9.076;2022-07-05T01:58:31;99012.09;;;20.99;51.84
63715;BME280;49858;48.956;9.076;2022-07-05T02:00:58;99019.13;;;20.39;53.99
63715;BME280;49858;48.956;9.076;2022-07-05T02:03:26;99014.47;;;20.25;54.81
63715;BME280;49858;48.956;9.076;2022-07-05T02:05:53;99018.34;;;20.38;53.81
63715;BME280;49858;48.956;9.076;2022-07-05T02:08:21;99018.25;;;20.49;53.72
63715;BME280;49858;48.956;9.076;2022-07-05T02:10:48;99013.38;;;21.22;51.83
63715;BME280;49858;48.956;9.076;2022-07-05T02:13:14;99005.63;;;21.02;51.27
63715;BME280;49858;48.956;9.076;2022-07-05T02:15:44;99004.44;;;21.03;51.11
63715;BME280;49858;48.956;9.076;2022-07-05T02:18:11;99012.59;;;20.56;53.40
63715;BME280;49858;48.956;9.076;2022-07-05T02:20:40;99005.28;;;20.25;53.91
63715;BME280;49858;48.956;9.076;2022-07-05T02:23:11;99002.78;;;20.37;54.47
63715;BME280;49858;48.956;9.076;2022-07-05T02:25:39;98993.97;;;20.39;52.92
63715;BME280;49858;48.956;9.076;2022-07-05T02:28:12;98991.81;;;20.16;53.70
63715;BME280;49858;48.956;9.076;2022-07-05T02:30:41;98988.69;;;19.55;55.41
63715;BME280;49858;48.956;9.076;2022-07-05T02:33:09;98995.78;;;19.70;55.34
63715;BME280;49858;48.956;9.076;2022-07-05T02:35:36;99004.50;;;19.79;54.08
63715;BME280;49858;48.956;9.076;2022-07-05T02:38:03;99003.78;;;19.68;53.89
63715;BME280;49858;48.956;9.076;2022-07-05T02:40:30;99008.22;;;20.10;53.18
63715;BME280;49858;48.956;9.076;2022-07-05T02:42:58;99010.44;;;20.30;52.03
63715;BME280;49858;48.956;9.076;2022-07-05T02:45:25;99003.94;;;19.99;53.97
63715;BME280;49858;48.956;9.076;2022-07-05T02:47:57;99006.91;;;19.77;54.10
63715;BME280;49858;48.956;9.076;2022-07-05T02:50:27;99007.63;;;19.85;54.55
63715;BME280;49858;48.956;9.076;2022-07-05T02:52:53;99006.84;;;20.71;51.95
63715;BME280;49858;48.956;9.076;2022-07-05T02:55:20;99003.09;;;19.46;54.40
63715;BME280;49858;48.956;9.076;2022-07-05T02:57:48;99015.16;;;20.36;52.82
63715;BME280;49858;48.956;9.076;2022-07-05T03:00:16;99016.06;;;19.78;54.25
63715;BME280;49858;48.956;9.076;2022-07-05T03:02:46;99016.50;;;18.99;57.01
63715;BME280;49858;48.956;9.076;2022-07-05T03:05:14;99019.97;;;19.25;56.69
63715;BME280;49858;48.956;9.076;2022-07-05T03:07:49;99023.84;;;20.46;53.44
63715;BME280;49858;48.956;9.076;2022-07-05T03:10:16;99028.00;;;20.72;51.91
63715;BME280;49858;48.956;9.076;2022-07-05T03:12:43;99024.47;;;21.29;49.84
63715;BME280;49858;48.956;9.076;2022-07-05T03:15:12;99025.84;;;20.45;52.32
63715;BME280;49858;48.956;9.076;2022-07-05T03:17:38;99018.28;;;19.38;54.82
63715;BME280;49858;48.956;9.076;2022-07-05T03:20:06;99020.09;;;19.03;56.85
63715;BME280;49858;48.956;9.076;2022-07-05T03:22:33;99021.00;;;18.57;57.92
63715;BME280;49858;48.956;9.076;2022-07-05T03:25:03;99031.00;;;18.33;58.91
63715;BME280;49858;48.956;9.076;2022-07-05T03:27:31;99027.75;;;18.78;57.56
63715;BME280;49858;48.956;9.076;2022-07-05T03:29:58;99025.72;;;18.89;56.64
63715;BME280;49858;48.956;9.076;2022-07-05T03:32:25;99027.06;;;18.17;59.78
63715;BME280;49858;48.956;9.076;2022-07-05T03:34:52;99027.84;;;17.92;61.60
63715;BME280;49858;48.956;9.076;2022-07-05T03:37:18;99025.38;;;18.65;59.65
63715;BME280;49858;48.956;9.076;2022-07-05T03:39:46;99035.97;;;19.10;58.60
63715;BME280;49858;48.956;9.076;2022-07-05T03:42:14;99034.50;;;19.64;56.31
63715;BME280;49858;48.956;9.076;2022-07-05T03:44:42;99033.06;;;19.38;56.34
63715;BME280;49858;48.956;9.076;2022-07-05T03:47:11;99046.22;;;19.34;55.42
63715;BME280;49858;48.956;9.076;2022-07-05T03:49:37;99043.69;;;18.70;57.58
63715;BME280;49858;48.956;9.076;2022-07-05T03:52:04;99046.91;;;18.47;58.74
63715;BME280;49858;48.956;9.076;2022-07-05T03:54:31;99051.69;;;18.50;59.00
63715;BME280;49858;48.956;9.076;2022-07-05T03:56:59;99052.47;;;18.47;59.02
63715;BME280;49858;48.956;9.076;2022-07-05T03:59:27;99055.25;;;18.44;59.96
63715;BME280;49858;48.956;9.076;2022-07-05T04:01:54;99060.41;;;19.65;56.57
63715;BME280;49858;48.956;9.076;2022-07-05T04:04:22;99059.69;;;20.58;53.71
63715;BME280;49858;48.956;9.076;2022-07-05T04:06:48;99062.16;;;20.00;54.02
63715;BME280;49858;48.956;9.076;2022-07-05T04:09:16;99058.19;;;19.28;55.70
63715;BME280;49858;48.956;9.076;2022-07-05T04:11:43;99072.31;;;18.88;57.09
63715;BME280;49858;48.956;9.076;2022-07-05T04:14:10;99068.38;;;18.64;58.13
63715;BME280;49858;48.956;9.076;2022-07-05T04:16:39;99068.75;;;18.67;58.40
63715;BME280;49858;48.956;9.076;2022-07-05T04:19:06;99081.88;;;18.87;58.38
63715;BME280;49858;48.956;9.076;2022-07-05T04:21:35;99078.97;;;19.20;57.36
63715;BME280;49858;48.956;9.076;2022-07-05T04:24:02;99084.19;;;19.91;54.71
63715;BME280;49858;48.956;9.076;2022-07-05T04:26:29;99083.81;;;20.79;52.83
63715;BME280;49858;48.956;9.076;2022-07-05T04:28:56;99085.31;;;20.46;53.59
63715;BME280;49858;48.956;9.076;2022-07-05T04:31:27;99079.41;;;20.81;52.07
63715;BME280;49858;48.956;9.076;2022-07-05T04:33:56;99082.16;;;20.43;52.69
63715;BME280;49858;48.956;9.076;2022-07-05T04:36:28;99087.44;;;20.76;52.15
63715;BME280;49858;48.956;9.076;2022-07-05T04:38:56;99087.59;;;20.13;53.10
63715;BME280;49858;48.956;9.076;2022-07-05T04:41:25;99088.34;;;19.58;54.92
63715;BME280;49858;48.956;9.076;2022-07-05T04:43:52;99093.38;;;20.36;53.72
63715;BME280;49858;48.956;9.076;2022-07-05T04:46:19;99092.75;;;19.62;55.29
63715;BME280;49858;48.956;9.076;2022-07-05T04:48:48;99093.69;;;20.49;53.57
63715;BME280;49858;48.956;9.076;2022-07-05T04:51:16;99088.72;;;21.05;52.16
63715;BME280;49858;48.956;9.076;2022-07-05T04:53:43;99095.72;;;19.89;53.94
63715;BME280;49858;48.956;9.076;2022-07-05T04:56:10;99097.50;;;19.58;55.56
63715;BME280;49858;48.956;9.076;2022-07-05T04:58:36;99094.94;;;19.15;56.70
63715;BME280;49858;48.956;9.076;2022-07-05T05:01:03;99097.53;;;19.62;56.22
63715;BME280;49858;48.956;9.076;2022-07-05T05:03:31;99101.34;;;19.02;57.37
63715;BME280;49858;48.956;9.076;2022-07-05T05:06:00;99097.44;;;18.78;58.60
63715;BME280;49858;48.956;9.076;2022-07-05T05:08:28;99105.56;;;19.42;57.55
63715;BME280;49858;48.956;9.076;2022-07-05T05:10:55;99094.34;;;19.53;58.17
63715;BME280;49858;48.956;9.076;2022-07-05T05:13:21;99098.94;;;19.04;58.58
63715;BME280;49858;48.956;9.076;2022-07-05T05:15:49;99092.88;;;19.30;57.43
63715;BME280;49858;48.956;9.076;2022-07-05T05:18:15;99094.00;;;19.44;57.66
63715;BME280;49858;48.956;9.076;2022-07-05T05:20:43;99094.09;;;19.19;59.14
63715;BME280;49858;48.956;9.076;2022-07-05T05:23:10;99095.56;;;19.48;58.15
63715;BME280;49858;48.956;9.076;2022-07-05T05:25:38;99099.59;;;19.36;60.08
63715;BME280;49858;48.956;9.076;2022-07-05T05:28:05;99097.91;;;19.57;59.13
63715;BME280;49858;48.956;9.076;2022-07-05T05:30:31;99099.63;;;19.33;59.25
63715;BME280;49858;48.956;9.076;2022-07-05T05:32:59;99100.56;;;18.90;60.80
63715;BME280;49858;48.956;9.076;2022-07-05T05:35:25;99096.59;;;18.92;61.08
63715;BME280;49858;48.956;9.076;2022-07-05T05:37:53;99100.22;;;19.76;58.33
63715;BME280;49858;48.956;9.076;2022-07-05T05:40:21;99110.22;;;19.66;58.27
63715;BME280;49858;48.956;9.076;2022-07-05T05:42:51;99113.06;;;20.71;56.50
63715;BME280;49858;48.956;9.076;2022-07-05T05:45:19;99112.09;;;20.43;55.66
63715;BME280;49858;48.956;9.076;2022-07-05T05:47:48;99106.44;;;20.02;57.02
63715;BME280;49858;48.956;9.076;2022-07-05T05:50:18;99104.88;;;19.94;56.55
63715;BME280;49858;48.956;9.076;2022-07-05T05:52:45;99108.00;;;20.06;57.90
63715;BME280;49858;48.956;9.076;2022-07-05T05:55:12;99111.69;;;20.48;56.82
63715;BME280;49858;48.956;9.076;2022-07-05T05:57:38;99105.63;;;21.29;54.66
63715;BME280;49858;48.956;9.076;2022-07-05T06:00:08;99104.34;;;21.94;52.47
63715;BME280;49858;48.956;9.076;2022-07-05T06:02:39;99105.41;;;22.55;50.76
63715;BME280;49858;48.956;9.076;2022-07-05T06:05:06;99106.03;;;22.62;49.98
63715;BME280;49858;48.956;9.076;2022-07-05T06:07:43;99119.63;;;21.90;51.22
63715;BME280;49858;48.956;9.076;2022-07-05T06:10:14;99116.72;;;21.70;51.92
63715;BME280;49858;48.956;9.076;2022-07-05T06:12:41;99117.56;;;20.99;53.15
63715;BME280;49858;48.956;9.076;2022-07-05T06:15:09;99124.47;;;20.42;54.50
63715;BME280;49858;48.956;9.076;2022-07-05T06:17:36;99123.84;;;21.44;51.39
63715;BME280;49858;48.956;9.076;2022-07-05T06:20:07;99120.78;;;21.31;52.21
63715;BME280;49858;48.956;9.076;2022-07-05T06:22:34;99126.53;;;22.36;49.55
63715;BME280;49858;48.956;9.076;2022-07-05T06:25:03;99132.22;;;21.44;51.54
63715;BME280;49858;48.956;9.076;2022-07-05T06:27:30;99127.28;;;21.86;50.99
63715;BME280;49858;48.956;9.076;2022-07-05T06:29:56;99135.31;;;21.84;51.41
63715;BME280;49858;48.956;9.076;2022-07-05T06:32:25;99136.25;;;21.43;52.48
63715;BME280;49858;48.956;9.076;2022-07-05T06:34:51;99136.47;;;21.86;52.27
63715;BME280;49858;48.956;9.076;2022-07-05T06:37:18;99143.28;;;21.85;51.29
63715;BME280;49858;48.956;9.076;2022-07-05T06:39:45;99144.69;;;21.02;53.32
63715;BME280;49858;48.956;9.076;2022-07-05T06:42:11;99145.31;;;21.16;54.20
63715;BME280;49858;48.956;9.076;2022-07-05T06:44:38;99148.72;;;22.27;50.86
63715;BME280;49858;48.956;9.076;2022-07-05T06:47:05;99158.25;;;22.02;50.94
63715;BME280;49858;48.956;9.076;2022-07-05T06:49:33;99148.34;;;22.48;49.73
63715;BME280;49858;48.956;9.076;2022-07-05T06:52:00;99153.03;;;22.04;50.39
63715;BME280;49858;48.956;9.076;2022-07-05T06:54:26;99152.88;;;22.15;50.25
63715;BME280;49858;48.956;9.076;2022-07-05T06:56:53;99147.31;;;22.62;49.30
63715;BME280;49858;48.956;9.076;2022-07-05T06:59:20;99147.06;;;23.00;47.24
63715;BME280;49858;48.956;9.076;2022-07-05T07:01:47;99147.78;;;22.33;48.94
63715;BME280;49858;48.956;9.076;2022-07-05T07:04:14;99142.00;;;22.44;48.83
63715;BME280;49858;48.956;9.076;2022-07-05T07:06:42;99145.44;;;22.79;47.38
63715;BME280;49858;48.956;9.076;2022-07-05T07:09:09;99152.09;;;22.65;48.09
63715;BME280;49858;48.956;9.076;2022-07-05T07:11:53;99152.56;;;22.36;48.00
63715;BME280;49858;48.956;9.076;2022-07-05T07:14:19;99152.91;;;23.29;46.47
63715;BME280;49858;48.956;9.076;2022-07-05T07:16:46;99150.34;;;24.46;43.88
63715;BME280;49858;48.956;9.076;2022-07-05T07:19:13;99154.28;;;24.16;44.19
63715;BME280;49858;48.956;9.076;2022-07-05T07:21:40;99150.09;;;22.89;44.99
63715;BME280;49858;48.956;9.076;2022-07-05T07:24:09;99151.84;;;22.79;45.40
63715;BME280;49858;48.956;9.076;2022-07-05T07:26:36;99154.41;;;23.93;42.62
63715;BME280;49858;48.956;9.076;2022-07-05T07:29:19;99151.78;;;24.38;41.79
63715;BME280;49858;48.956;9.076;2022-07-05T07:31:46;99152.41;;;25.08;39.01
63715;BME280;49858;48.956;9.076;2022-07-05T07:34:13;99155.69;;;25.35;39.16
63715;BME280;49858;48.956;9.076;2022-07-05T07:36:40;99159.78;;;25.89;38.02
63715;BME280;49858;48.956;9.076;2022-07-05T07:39:07;99156.91;;;24.89;40.15
63715;BME280;49858;48.956;9.076;2022-07-05T07:41:35;99150.28;;;23.81;41.51
63715;BME280;49858;48.956;9.076;2022-07-05T07:44:01;99152.13;;;24.57;41.57
63715;BME280;49858;48.956;9.076;2022-07-05T07:46:28;99160.63;;;24.69;41.79
63715;BME280;49858;48.956;9.076;2022-07-05T07:48:55;99156.56;;;24.21;41.54
63715;BME280;49858;48.956;9.076;2022-07-05T07:51:22;99159.00;;;25.17;40.24
63715;BME280;49858;48.956;9.076;2022-07-05T07:53:49;99160.25;;;25.58;39.36
63715;BME280;49858;48.956;9.076;2022-07-05T07:56:16;99166.41;;;24.30;41.40
63715;BME280;49858;48.956;9.076;2022-07-05T07:58:44;99159.66;;;25.09;39.16
63715;BME280;49858;48.956;9.076;2022-07-05T08:01:11;99164.69;;;24.68;39.79
63715;BME280;49858;48.956;9.076;2022-07-05T08:03:39;99160.50;;;25.06;39.30
63715;BME280;49858;48.956;9.076;2022-07-05T08:06:06;99168.81;;;25.26;39.60
63715;BME280;49858;48.956;9.076;2022-07-05T08:08:33;99172.63;;;26.15;38.23
63715;BME280;49858;48.956;9.076;2022-07-05T08:11:00;99173.59;;;26.85;37.08
63715;BME280;49858;48.956;9.076;2022-07-05T08:13:26;99168.50;;;27.27;36.90
63715;BME280;49858;48.956;9.076;2022-07-05T08:15:54;99167.66;;;26.70;38.00
63715;BME280;49858;48.956;9.076;2022-07-05T08:18:21;99173.66;;;26.09;38.33
63715;BME280;49858;48.956;9.076;2022-07-05T08:21:05;99169.63;;;26.35;38.19
63715;BME280;49858;48.956;9.076;2022-07-05T08:23:49;99169.78;;;25.77;36.67
63715;BME280;49858;48.956;9.076;2022-07-05T08:26:16;99174.22;;;25.91;35.65
63715;BME280;49858;48.956;9.076;2022-07-05T08:28:43;99172.66;;;26.28;34.95
63715;BME280;49858;48.956;9.076;2022-07-05T08:31:11;99167.16;;;25.28;34.68
63715;BME280;49858;48.956;9.076;2022-07-05T08:33:38;99171.25;;;25.82;35.61
63715;BME280;49858;48.956;9.076;2022-07-05T08:36:05;99166.34;;;25.57;35.20
63715;BME280;49858;48.956;9.076;2022-07-05T08:38:33;99167.25;;;26.08;34.46
63715;BME280;49858;48.956;9.076;2022-07-05T08:41:00;99169.94;;;26.24;34.52
63715;BME280;49858;48.956;9.076;2022-07-05T08:43:29;99165.34;;;26.91;33.68
63715;BME280;49858;48.956;9.076;2022-07-05T08:45:56;99158.22;;;27.34;32.05
63715;BME280;49858;48.956;9.076;2022-07-05T08:48:27;99164.09;;;25.22;34.17
63715;BME280;49858;48.956;9.076;2022-07-05T08:50:55;99164.28;;;25.15;34.34
63715;BME280;49858;48.956;9.076;2022-07-05T08:53:22;99164.56;;;25.34;34.62
63715;BME280;49858;48.956;9.076;2022-07-05T08:55:50;99168.25;;;27.00;32.04
63715;BME280;49858;48.956;9.076;2022-07-05T08:58:17;99164.88;;;25.23;33.95
63715;BME280;49858;48.956;9.076;2022-07-05T09:00:43;99161.56;;;25.83;33.02
63715;BME280;49858;48.956;9.076;2022-07-05T09:03:10;99158.88;;;26.68;31.29
63715;BME280;49858;48.956;9.076;2022-07-05T09:05:43;99173.44;;;26.03;31.78
63715;BME280;49858;48.956;9.076;2022-07-05T09:08:15;99165.31;;;26.05;32.72
63715;BME280;49858;48.956;9.076;2022-07-05T09:10:43;99162.91;;;26.67;32.07
63715;BME280;49858;48.956;9.076;2022-07-05T09:13:10;99172.63;;;26.66;31.70
63715;BME280;49858;48.956;9.076;2022-07-05T09:15:38;99160.91;;;25.20;34.08
63715;BME280;49858;48.956;9.076;2022-07-05T09:18:05;99153.38;;;26.27;33.18
63715;BME280;49858;48.956;9.076;2022-07-05T09:20:31;99162.28;;;26.98;30.71
63715;BME280;49858;48.956;9.076;2022-07-05T09:22:59;99162.56;;;27.25;31.04
63715;BME280;49858;48.956;9.076;2022-07-05T09:25:28;99168.78;;;26.35;32.03
63715;BME280;49858;48.956;9.076;2022-07-05T09:27:57;99173.69;;;26.47;33.39
63715;BME280;49858;48.956;9.076;2022-07-05T09:30:32;99169.13;;;26.62;32.39
63715;BME280;49858;48.956;9.076;2022-07-05T09:33:03;99166.06;;;28.05;31.44
63715;BME280;49858;48.956;9.076;2022-07-05T09:35:30;99171.28;;;27.40;31.12
63715;BME280;49858;48.956;9.076;2022-07-05T09:37:56;99172.13;;;27.28;29.70
63715;BME280;49858;48.956;9.076;2022-07-05T09:40:25;99171.97;;;26.62;31.57
63715;BME280;49858;48.956;9.076;2022-07-05T09:42:51;99175.59;;;28.88;29.28
63715;BME280;49858;48.956;9.076;2022-07-05T09:45:22;99177.59;;;29.55;28.21
63715;BME280;49858;48.956;9.076;2022-07-05T09:47:49;99172.06;;;27.41;29.62
63715;BME280;49858;48.956;9.076;2022-07-05T09:50:34;99169.53;;;28.40;28.94
63715;BME280;49858;48.956;9.076;2022-07-05T09:53:00;99177.22;;;29.07;28.33
63715;BME280;49858;48.956;9.076;2022-07-05T09:55:28;99177.84;;;27.02;30.55
63715;BME280;49858;48.956;9.076;2022-07-05T09:57:55;99173.78;;;27.04;29.81
63715;BME280;49858;48.956;9.076;2022-07-05T10:00:23;99164.75;;;26.61;29.64
63715;BME280;49858;48.956;9.076;2022-07-05T10:02:51;99171.63;;;27.20;28.35
63715;BME280;49858;48.956;9.076;2022-07-05T10:05:19;99167.41;;;27.69;29.17
63715;BME280;49858;48.956;9.076;2022-07-05T10:07:47;99162.25;;;26.38;30.85
63715;BME280;49858;48.956;9.076;2022-07-05T10:10:15;99164.25;;;27.89;29.44
63715;BME280;49858;48.956;9.076;2022-07-05T10:12:45;99175.59;;;28.88;27.99
63715;BME280;49858;48.956;9.076;2022-07-05T10:15:14;99166.59;;;29.99;27.23
63715;BME280;49858;48.956;9.076;2022-07-05T10:17:42;99165.69;;;29.93;26.48
63715;BME280;49858;48.956;9.076;2022-07-05T10:20:14;99166.94;;;28.23;28.38
63715;BME280;49858;48.956;9.076;2022-07-05T10:22:43;99166.91;;;27.39;27.64
63715;BME280;49858;48.956;9.076;2022-07-05T10:25:10;99160.25;;;26.98;28.73
63715;BME280;49858;48.956;9.076;2022-07-05T10:27:37;99162.22;;;29.89;25.64
63715;BME280;49858;48.956;9.076;2022-07-05T10:30:06;99166.81;;;30.86;25.44
63715;BME280;49858;48.956;9.076;2022-07-05T10:32:34;99164.69;;;31.59;24.32
63715;BME280;49858;48.956;9.076;2022-07-05T10:35:01;99164.16;;;32.69;22.44
63715;BME280;49858;48.956;9.076;2022-07-05T10:37:31;99162.78;;;33.67;21.23
63715;BME280;49858;48.956;9.076;2022-07-05T10:40:00;99171.75;;;31.63;23.49
63715;BME280;49858;48.956;9.076;2022-07-05T10:42:30;99167.88;;;30.41;24.10
63715;BME280;49858;48.956;9.076;2022-07-05T10:44:57;99168.91;;;32.08;23.26
63715;BME280;49858;48.956;9.076;2022-07-05T10:47:25;99163.84;;;35.18;20.19
63715;BME280;49858;48.956;9.076;2022-07-05T10:50:04;99162.34;;;33.48;21.48
63715;BME280;49858;48.956;9.076;2022-07-05T10:52:31;99170.59;;;33.25;21.20
63715;BME280;49858;48.956;9.076;2022-07-05T10:55:17;99174.00;;;31.59;23.27
63715;BME280;49858;48.956;9.076;2022-07-05T11:00:48;99151.66;;;33.02;22.14
63715;BME280;49858;48.956;9.076;2022-07-05T11:03:36;99162.69;;;34.13;20.99
63715;BME280;49858;48.956;9.076;2022-07-05T11:06:04;99160.78;;;33.99;21.14
63715;BME280;49858;48.956;9.076;2022-07-05T11:11:39;99155.66;;;33.82;21.42
63715;BME280;49858;48.956;9.076;2022-07-05T11:14:29;99159.47;;;32.16;22.61
63715;BME280;49858;48.956;9.076;2022-07-05T11:17:11;99165.13;;;29.16;25.44
63715;BME280;49858;48.956;9.076;2022-07-05T11:20:04;99162.59;;;29.54;25.16
63715;BME280;49858;48.956;9.076;2022-07-05T11:22:32;99167.22;;;30.70;24.86
63715;BME280;49858;48.956;9.076;2022-07-05T11:25:00;99171.38;;;27.71;27.42
63715;BME280;49858;48.956;9.076;2022-07-05T11:27:28;99171.34;;;28.74;26.68
63715;BME280;49858;48.956;9.076;2022-07-05T11:29:56;99159.91;;;28.96;26.95
63715;BME280;49858;48.956;9.076;2022-07-05T11:32:34;99158.47;;;33.30;21.19
63715;BME280;49858;48.956;9.076;2022-07-05T11:35:12;99162.09;;;33.05;21.33
63715;BME280;49858;48.956;9.076;2022-07-05T11:37:58;99151.78;;;36.52;18.08
63715;BME280;49858;48.956;9.076;2022-07-05T11:40:28;99162.34;;;34.74;18.95
63715;BME280;49858;48.956;9.076;2022-07-05T11:42:57;99153.13;;;35.95;18.36
63715;BME280;49858;48.956;9.076;2022-07-05T11:45:24;99154.09;;;36.71;17.49
63715;BME280;49858;48.956;9.076;2022-07-05T11:47:53;99152.13;;;32.24;20.90
63715;BME280;49858;48.956;9.076;2022-07-05T11:50:26;99152.22;;;32.86;20.97
63715;BME280;49858;48.956;9.076;2022-07-05T11:52:53;99148.81;;;34.32;19.79
63715;BME280;49858;48.956;9.076;2022-07-05T11:55:20;99143.00;;;32.91;20.85
63715;BME280;49858;48.956;9.076;2022-07-05T11:57:51;99145.97;;;31.81;20.95
63715;BME280;49858;48.956;9.076;2022-07-05T12:00:35;99132.66;;;34.23;17.34
63715;BME280;49858;48.956;9.076;2022-07-05T12:03:11;99139.72;;;34.76;18.23
63715;BME280;49858;48.956;9.076;2022-07-05T12:05:38;99138.22;;;34.06;19.28
63715;BME280;49858;48.956;9.076;2022-07-05T12:08:05;99130.50;;;34.98;18.90
63715;BME280;49858;48.956;9.076;2022-07-05T12:10:32;99132.19;;;34.68;19.70
63715;BME280;49858;48.956;9.076;2022-07-05T12:13:16;99131.31;;;31.29;23.08
63715;BME280;49858;48.956;9.076;2022-07-05T12:15:44;99130.72;;;29.78;24.97
63715;BME280;49858;48.956;9.076;2022-07-05T12:18:12;99121.94;;;30.18;24.74
63715;BME280;49858;48.956;9.076;2022-07-05T12:20:41;99129.69;;;30.09;24.44
63715;BME280;49858;48.956;9.076;2022-07-05T12:23:07;99123.75;;;29.09;24.82
63715;BME280;49858;48.956;9.076;2022-07-05T12:25:35;99128.19;;;31.57;22.15
63715;BME280;49858;48.956;9.076;2022-07-05T12:28:09;99119.31;;;32.85;20.30
63715;BME280;49858;48.956;9.076;2022-07-05T12:30:36;99123.81;;;33.90;19.24
63715;BME280;49858;48.956;9.076;2022-07-05T12:33:05;99114.28;;;36.33;16.93
63715;BME280;49858;48.956;9.076;2022-07-05T12:35:34;99121.81;;;35.47;17.58
63715;BME280;49858;48.956;9.076;2022-07-05T12:38:06;99117.59;;;34.23;19.02
63715;BME280;49858;48.956;9.076;2022-07-05T12:40:34;99123.50;;;34.14;18.38
63715;BME280;49858;48.956;9.076;2022-07-05T12:43:08;99121.34;;;31.93;20.14
63715;BME280;49858;48.956;9.076;2022-07-05T12:45:37;99118.06;;;34.53;18.62
63715;BME280;49858;48.956;9.076;2022-07-05T12:48:07;99119.28;;;34.89;17.62
63715;BME280;49858;48.956;9.076;2022-07-05T12:50:45;99123.91;;;31.91;20.37
63715;BME280;49858;48.956;9.076;2022-07-05T12:53:12;99112.56;;;32.12;20.18
63715;BME280;49858;48.956;9.076;2022-07-05T12:56:01;99119.78;;;31.09;20.75
63715;BME280;49858;48.956;9.076;2022-07-05T12:58:47;99115.22;;;33.84;18.71
63715;BME280;49858;48.956;9.076;2022-07-05T13:01:21;99115.69;;;34.46;18.53
63715;BME280;49858;48.956;9.076;2022-07-05T13:04:01;99108.09;;;34.91;18.39
63715;BME280;49858;48.956;9.076;2022-07-05T13:06:42;99121.38;;;30.62;21.31
63715;BME280;49858;48.956;9.076;2022-07-05T13:09:09;99109.75;;;30.27;22.40
63715;BME280;49858;48.956;9.076;2022-07-05T13:11:35;99120.75;;;31.60;20.15
63715;BME280;49858;48.956;9.076;2022-07-05T13:14:02;99116.28;;;33.09;18.77